createdAt,value
2018-09-18T00:02:15.779Z,13.40
2018-09-18T00:04:44.960Z,12.37
2018-09-18T00:07:14.008Z,13.00
2018-09-18T00:09:43.177Z,13.40
2018-09-18T00:12:12.387Z,13.17
2018-09-18T00:14:41.738Z,13.93
2018-09-18T00:17:11.088Z,13.77
2018-09-18T00:19:40.100Z,13.57
2018-09-18T00:22:09.455Z,13.63
2018-09-18T00:24:38.631Z,12.57
2018-09-18T00:27:07.700Z,13.50
2018-09-18T00:29:36.951Z,13.27
2018-09-18T00:32:06.069Z,13.67
2018-09-18T00:34:35.224Z,12.60
2018-09-18T00:37:04.523Z,14.37
2018-09-18T00:39:33.805Z,12.80
2018-09-18T00:42:03.219Z,12.70
2018-09-18T00:44:32.267Z,12.03
2018-09-18T00:47:01.403Z,13.03
2018-09-18T00:49:30.796Z,12.70
2018-09-18T00:51:59.918Z,12.23
2018-09-18T00:54:29.299Z,11.80
2018-09-18T00:56:58.500Z,10.67
2018-09-18T00:59:27.717Z,10.50
2018-09-18T01:01:56.955Z,12.77
2018-09-18T01:04:26.152Z,12.43
2018-09-18T01:06:55.427Z,11.93
2018-09-18T01:09:24.773Z,11.03
2018-09-18T01:11:54.133Z,10.20
2018-09-18T01:14:23.388Z,10.10
2018-09-18T01:16:52.471Z,8.97
2018-09-18T01:19:21.715Z,9.10
2018-09-18T01:21:50.904Z,9.33
2018-09-18T01:24:20.204Z,9.93
2018-09-18T01:26:49.440Z,10.70
2018-09-18T01:29:18.603Z,9.90
2018-09-18T01:31:47.958Z,10.50
2018-09-18T01:34:17.307Z,10.37
2018-09-18T01:36:46.504Z,9.53
2018-09-18T01:39:15.509Z,8.40
2018-09-18T01:41:44.795Z,8.83
2018-09-18T01:44:14.096Z,9.50
2018-09-18T01:46:43.441Z,8.83
2018-09-18T01:49:12.611Z,7.60
2018-09-18T01:51:41.892Z,8.77
2018-09-18T01:54:11.203Z,10.20
2018-09-18T01:56:40.492Z,8.70
2018-09-18T01:59:09.550Z,10.83
2018-09-18T02:01:38.714Z,8.50
2018-09-18T02:04:07.992Z,9.60
2018-09-18T02:06:37.256Z,10.53
2018-09-18T02:09:08.063Z,10.60
2018-09-18T02:11:37.406Z,8.60
2018-09-18T02:14:06.648Z,10.10
2018-09-18T02:16:35.858Z,10.63
2018-09-18T02:19:05.205Z,9.97
2018-09-18T02:21:34.316Z,10.97
2018-09-18T02:24:03.712Z,10.57
2018-09-18T02:26:33.000Z,9.60
2018-09-18T02:29:02.714Z,10.33
2018-09-18T02:31:32.109Z,11.13
2018-09-18T02:34:01.313Z,10.03
2018-09-18T02:36:30.817Z,11.07
2018-09-18T02:39:00.267Z,10.77
2018-09-18T02:41:29.267Z,10.37
2018-09-18T02:43:58.637Z,12.10
2018-09-18T02:46:27.847Z,11.30
2018-09-18T02:48:57.153Z,13.03
2018-09-18T02:51:26.626Z,13.10
2018-09-18T02:53:56.058Z,11.90
2018-09-18T02:56:25.347Z,11.43
2018-09-18T02:58:54.256Z,11.30
2018-09-18T03:01:23.470Z,11.30
2018-09-18T03:03:52.712Z,12.73
2018-09-18T03:06:21.997Z,12.93
2018-09-18T03:08:51.339Z,12.77
2018-09-18T03:11:20.973Z,12.27
2018-09-18T03:13:50.091Z,13.00
2018-09-18T03:16:19.441Z,13.13
2018-09-18T03:18:48.644Z,12.13
2018-09-18T03:21:17.434Z,13.23
2018-09-18T03:23:46.358Z,12.13
2018-09-18T03:26:15.515Z,12.90
2018-09-18T03:28:44.514Z,11.87
2018-09-18T03:31:13.703Z,12.77
2018-09-18T03:33:42.757Z,12.50
2018-09-18T03:36:11.647Z,12.73
2018-09-18T03:38:40.701Z,13.07
2018-09-18T03:41:09.798Z,11.73
2018-09-18T03:43:39.227Z,12.00
2018-09-18T03:46:08.675Z,12.73
2018-09-18T03:48:37.885Z,12.13
2018-09-18T03:51:06.963Z,11.83
2018-09-18T03:53:36.314Z,11.90
2018-09-18T03:56:05.667Z,12.07
2018-09-18T03:58:35.019Z,12.73
2018-09-18T04:01:04.295Z,11.60
2018-09-18T04:03:33.756Z,10.77
2018-09-18T04:06:03.027Z,13.60
2018-09-18T04:08:32.423Z,12.77
2018-09-18T04:11:01.619Z,11.90
2018-09-18T04:13:30.667Z,10.93
2018-09-18T04:16:00.023Z,11.37
2018-09-18T04:18:29.350Z,11.00
2018-09-18T04:20:58.617Z,11.80
2018-09-18T04:23:27.813Z,12.97
2018-09-18T04:25:56.745Z,11.17
2018-09-18T04:28:25.780Z,10.97
2018-09-18T04:30:55.280Z,10.60
2018-09-18T04:33:24.546Z,13.30
2018-09-18T04:35:53.747Z,11.67
2018-09-18T04:38:22.753Z,11.57
2018-09-18T04:40:52.070Z,10.90
2018-09-18T04:43:21.429Z,12.10
2018-09-18T04:45:50.798Z,12.30
2018-09-18T04:48:20.178Z,12.03
2018-09-18T04:50:49.126Z,10.67
2018-09-18T04:53:18.239Z,10.60
2018-09-18T04:55:47.352Z,10.87
2018-09-18T04:58:16.609Z,11.17
2018-09-18T05:00:45.960Z,11.33
2018-09-18T05:03:15.412Z,10.80
2018-09-18T05:05:44.761Z,13.03
2018-09-18T05:08:13.923Z,10.57
2018-09-18T05:10:43.347Z,10.80
2018-09-18T05:13:12.443Z,11.87
2018-09-18T05:15:41.520Z,11.57
2018-09-18T05:18:10.783Z,11.77
2018-09-18T05:20:40.044Z,10.70
2018-09-18T05:23:09.396Z,10.67
2018-09-18T05:25:38.724Z,11.20
2018-09-18T05:28:07.694Z,10.63
2018-09-18T05:30:36.784Z,10.93
2018-09-18T05:33:06.076Z,11.77
2018-09-18T05:35:35.539Z,12.33
2018-09-18T05:38:04.879Z,12.47
2018-09-18T05:40:34.338Z,12.43
2018-09-18T05:43:03.687Z,14.43
2018-09-18T05:45:32.986Z,12.23
2018-09-18T05:48:02.307Z,12.17
2018-09-18T05:50:31.698Z,12.33
2018-09-18T05:53:01.139Z,11.93
2018-09-18T05:55:30.331Z,11.77
2018-09-18T05:57:59.583Z,11.10
2018-09-18T06:00:28.985Z,11.80
2018-09-18T06:02:58.388Z,12.10
2018-09-18T06:05:27.595Z,12.37
2018-09-18T06:07:56.884Z,12.37
2018-09-18T06:10:26.578Z,12.13
2018-09-18T06:12:55.987Z,11.07
2018-09-18T06:15:25.344Z,11.93
2018-09-18T06:17:54.642Z,11.43
2018-09-18T06:20:23.828Z,11.17
2018-09-18T06:22:52.987Z,11.03
2018-09-18T06:25:22.079Z,14.70
2018-09-18T06:27:51.088Z,13.17
2018-09-18T06:30:20.148Z,19.37
2018-09-18T06:32:49.507Z,13.87
2018-09-18T06:35:18.905Z,15.37
2018-09-18T06:37:48.010Z,15.67
2018-09-18T06:40:17.324Z,15.00
2018-09-18T06:42:46.294Z,12.33
2018-09-18T06:45:15.559Z,15.00
2018-09-18T06:47:44.591Z,13.47
2018-09-18T06:50:13.805Z,13.23
2018-09-18T06:52:42.953Z,10.87
2018-09-18T06:55:11.927Z,11.43
2018-09-18T06:57:41.175Z,10.73
2018-09-18T07:00:10.235Z,9.40
2018-09-18T07:02:39.524Z,10.90
2018-09-18T07:05:08.780Z,8.80
2018-09-18T07:07:38.014Z,8.50
2018-09-18T07:10:07.715Z,8.90
2018-09-18T07:12:36.920Z,8.03
2018-09-18T07:15:06.524Z,8.83
2018-09-18T07:17:35.709Z,9.00
2018-09-18T07:20:05.008Z,9.07
2018-09-18T07:22:34.212Z,9.00
2018-09-18T07:25:03.580Z,10.00
2018-09-18T07:27:32.968Z,9.80
2018-09-18T07:30:02.389Z,17.67
2018-09-18T07:32:31.613Z,9.87
2018-09-18T07:35:00.981Z,9.50
2018-09-18T07:37:30.110Z,9.40
2018-09-18T07:39:59.252Z,10.17
2018-09-18T07:42:28.735Z,8.57
2018-09-18T07:44:57.888Z,7.33
2018-09-18T07:47:27.156Z,7.10
2018-09-18T07:49:56.347Z,8.03
2018-09-18T07:52:25.807Z,11.67
2018-09-18T07:54:54.956Z,23.43
2018-09-18T07:57:24.047Z,13.50
2018-09-18T07:59:53.399Z,9.37
2018-09-18T08:02:22.447Z,8.37
2018-09-18T08:04:51.754Z,16.47
2018-09-18T08:07:20.922Z,9.00
2018-09-18T08:09:50.286Z,8.23
2018-09-18T08:12:19.568Z,8.30
2018-09-18T08:14:48.762Z,10.07
2018-09-18T08:17:17.885Z,7.73
2018-09-18T08:19:47.341Z,7.20
2018-09-18T08:22:16.540Z,6.83
2018-09-18T08:24:45.733Z,6.50
2018-09-18T08:27:14.872Z,7.77
2018-09-18T08:29:44.385Z,8.07
2018-09-18T08:32:13.732Z,8.30
2018-09-18T08:34:42.960Z,7.90
2018-09-18T08:37:12.272Z,7.50
2018-09-18T08:39:41.630Z,8.93
2018-09-18T08:42:10.704Z,7.67
2018-09-18T08:44:40.020Z,7.43
2018-09-18T08:47:09.516Z,10.07
2018-09-18T08:49:38.746Z,7.07
2018-09-18T08:52:08.174Z,7.50
2018-09-18T08:54:37.434Z,9.20
2018-09-18T08:57:07.199Z,9.07
2018-09-18T08:59:36.609Z,8.87
2018-09-18T09:02:05.891Z,8.43
2018-09-18T09:04:34.855Z,10.23
2018-09-18T09:07:04.321Z,9.00
2018-09-18T09:09:33.726Z,8.90
2018-09-18T09:12:02.931Z,8.90
2018-09-18T09:14:32.108Z,8.17
2018-09-18T09:17:01.566Z,10.37
2018-09-18T09:19:30.791Z,8.50
2018-09-18T09:22:00.016Z,9.60
2018-09-18T09:24:29.039Z,9.77
2018-09-18T09:26:58.643Z,10.00
2018-09-18T09:29:27.904Z,10.70
2018-09-18T09:31:57.371Z,8.60
2018-09-18T09:34:26.579Z,8.70
2018-09-18T09:36:55.715Z,10.93
2018-09-18T09:39:24.887Z,8.87
2018-09-18T09:41:54.066Z,7.77
2018-09-18T09:44:23.528Z,8.20
2018-09-18T09:46:52.793Z,9.53
2018-09-18T09:49:21.996Z,7.47
2018-09-18T09:51:51.391Z,7.60
2018-09-18T09:54:20.755Z,8.73
2018-09-18T09:56:50.103Z,7.60
2018-09-18T09:59:19.307Z,6.93
2018-09-18T10:01:55.507Z,6.80
2018-09-18T10:04:24.877Z,6.60
2018-09-18T10:06:54.345Z,6.57
2018-09-18T10:09:23.668Z,7.37
2018-09-18T10:11:52.964Z,8.33
2018-09-18T10:14:22.169Z,6.03
2018-09-18T10:16:51.403Z,5.97
2018-09-18T10:19:20.900Z,7.77
2018-09-18T10:21:49.855Z,7.45
2018-09-18T10:24:19.103Z,6.12
2018-09-18T10:26:48.530Z,7.05
2018-09-18T10:29:17.779Z,5.62
2018-09-18T10:31:46.968Z,6.83
2018-09-18T10:34:16.519Z,5.75
2018-09-18T10:36:45.708Z,5.10
2018-09-18T10:39:14.900Z,6.33
2018-09-18T10:41:44.331Z,7.75
2018-09-18T10:44:13.638Z,5.97
2018-09-18T10:46:42.576Z,6.15
2018-09-18T10:49:11.987Z,8.60
2018-09-18T10:51:40.972Z,6.55
2018-09-18T10:54:10.111Z,6.62
2018-09-18T10:56:39.354Z,6.75
2018-09-18T10:59:08.529Z,5.75
2018-09-18T11:01:37.843Z,5.47
2018-09-18T11:04:06.814Z,5.55
2018-09-18T11:06:36.268Z,5.85
2018-09-18T11:09:07.200Z,5.12
2018-09-18T11:11:36.580Z,5.10
2018-09-18T11:14:05.958Z,4.83
2018-09-18T11:16:35.023Z,6.67
2018-09-18T11:19:04.289Z,5.03
2018-09-18T11:21:33.675Z,5.45
2018-09-18T11:24:02.631Z,6.65
2018-09-18T11:26:32.035Z,7.05
2018-09-18T11:29:01.465Z,5.35
2018-09-18T11:31:30.576Z,5.45
2018-09-18T11:33:59.838Z,5.85
2018-09-18T11:36:29.283Z,6.40
2018-09-18T11:38:58.637Z,4.25
2018-09-18T11:41:28.311Z,5.22
2018-09-18T11:43:57.530Z,4.87
2018-09-18T11:46:26.760Z,5.17
2018-09-18T11:48:56.104Z,5.00
2018-09-18T11:51:24.998Z,4.40
2018-09-18T11:53:54.323Z,4.30
2018-09-18T11:56:23.448Z,5.85
2018-09-18T11:58:52.764Z,6.28
2018-09-18T12:01:22.011Z,4.47
2018-09-18T12:03:51.261Z,5.28
2018-09-18T12:06:20.712Z,4.83
2018-09-18T12:08:49.792Z,5.50
2018-09-18T12:11:18.925Z,5.17
2018-09-18T12:13:48.452Z,4.28
2018-09-18T12:16:17.721Z,5.65
2018-09-18T12:18:46.846Z,4.75
2018-09-18T12:21:16.155Z,4.75
2018-09-18T12:23:45.499Z,4.15
2018-09-18T12:26:14.633Z,3.85
2018-09-18T12:28:43.876Z,4.80
2018-09-18T12:31:14.003Z,3.90
2018-09-18T12:33:43.184Z,4.15
2018-09-18T12:36:12.605Z,4.08
2018-09-18T12:38:41.947Z,4.33
2018-09-18T12:41:11.338Z,5.67
2018-09-18T12:43:40.454Z,6.70
2018-09-18T12:46:09.661Z,4.62
2018-09-18T12:48:38.996Z,4.15
2018-09-18T12:51:08.352Z,4.40
2018-09-18T12:53:37.531Z,4.50
2018-09-18T12:56:06.822Z,4.92
2018-09-18T12:58:36.107Z,5.08
2018-09-18T13:01:05.468Z,5.12
2018-09-18T13:03:34.701Z,4.35
2018-09-18T13:06:04.058Z,4.45
2018-09-18T13:08:33.401Z,4.40
2018-09-18T13:11:02.732Z,4.28
2018-09-18T13:13:31.778Z,5.58
2018-09-18T13:16:00.965Z,4.78
2018-09-18T13:18:30.275Z,4.22
2018-09-18T13:20:59.343Z,4.33
2018-09-18T13:23:28.532Z,5.35
2018-09-18T13:25:57.771Z,7.53
2018-09-18T13:28:27.085Z,5.10
2018-09-18T13:30:56.409Z,8.08
2018-09-18T13:33:25.572Z,6.72
2018-09-18T13:35:54.916Z,4.33
2018-09-18T13:38:24.155Z,4.70
2018-09-18T13:40:53.734Z,5.77
2018-09-18T13:43:23.024Z,5.20
2018-09-18T13:45:52.037Z,5.97
2018-09-18T13:48:21.295Z,7.60
2018-09-18T13:50:50.675Z,5.63
2018-09-18T13:53:20.047Z,7.07
2018-09-18T13:55:49.399Z,6.63
2018-09-18T13:58:18.755Z,6.07
2018-09-18T14:00:47.750Z,5.67
2018-09-18T14:03:17.050Z,5.53
2018-09-18T14:05:46.194Z,6.73
2018-09-18T14:08:15.255Z,7.50
2018-09-18T14:10:44.595Z,12.47
2018-09-18T14:13:13.840Z,7.27
2018-09-18T14:15:42.940Z,9.07
2018-09-18T14:18:12.189Z,11.57
2018-09-18T14:20:41.431Z,5.70
2018-09-18T14:23:10.715Z,7.23
2018-09-18T14:25:40.071Z,5.57
2018-09-18T14:28:09.591Z,8.30
2018-09-18T14:30:38.930Z,8.43
2018-09-18T14:33:08.392Z,9.20
2018-09-18T14:35:37.556Z,6.00
2018-09-18T14:38:06.983Z,7.17
2018-09-18T14:40:36.419Z,7.97
2018-09-18T14:43:05.525Z,6.73
2018-09-18T14:45:34.863Z,10.47
2018-09-18T14:48:04.241Z,6.03
2018-09-18T14:50:33.573Z,6.30
2018-09-18T14:53:02.512Z,5.57
2018-09-18T14:55:31.673Z,6.83
2018-09-18T14:58:01.378Z,6.20
2018-09-18T15:00:30.667Z,6.23
2018-09-18T15:02:59.733Z,6.07
2018-09-18T15:05:29.180Z,7.03
2018-09-18T15:07:58.344Z,6.37
2018-09-18T15:10:27.629Z,7.10
2018-09-18T15:12:56.847Z,4.63
2018-09-18T15:15:25.919Z,5.80
2018-09-18T15:17:55.452Z,6.30
2018-09-18T15:20:24.754Z,10.20
2018-09-18T15:22:53.700Z,7.00
2018-09-18T15:25:22.899Z,5.20
2018-09-18T15:27:52.188Z,6.43
2018-09-18T15:30:21.585Z,5.33
2018-09-18T15:32:50.833Z,6.80
2018-09-18T15:35:20.027Z,7.43
2018-09-18T15:37:49.370Z,6.33
2018-09-18T15:40:18.624Z,5.30
2018-09-18T15:42:48.134Z,5.43
2018-09-18T15:45:17.640Z,6.67
2018-09-18T15:47:46.907Z,6.73
2018-09-18T15:50:16.144Z,8.50
2018-09-18T15:52:45.488Z,5.93
2018-09-18T15:55:14.995Z,6.03
2018-09-18T15:57:44.306Z,6.73
2018-09-18T16:00:13.364Z,5.60
2018-09-18T16:02:42.684Z,5.20
2018-09-18T16:05:11.693Z,5.20
2018-09-18T16:07:41.105Z,5.20
2018-09-18T16:10:10.556Z,6.10
2018-09-18T16:12:39.592Z,6.10
2018-09-18T16:15:08.785Z,5.20
2018-09-18T16:17:38.122Z,6.00
2018-09-18T16:20:07.468Z,7.33
2018-09-18T16:22:36.874Z,6.87
2018-09-18T16:25:06.268Z,8.87
2018-09-18T16:27:35.254Z,6.57
2018-09-18T16:30:04.545Z,6.50
2018-09-18T16:32:33.973Z,5.93
2018-09-18T16:35:03.383Z,6.50
2018-09-18T16:37:32.787Z,7.63
2018-09-18T16:40:02.034Z,5.93
2018-09-18T16:42:30.928Z,5.53
2018-09-18T16:45:00.205Z,5.10
2018-09-18T16:47:29.122Z,6.70
2018-09-18T16:49:58.616Z,8.63
2018-09-18T16:52:27.984Z,6.63
2018-09-18T16:54:57.483Z,6.87
2018-09-18T16:57:26.615Z,5.70
2018-09-18T16:59:56.004Z,6.30
2018-09-18T17:02:25.593Z,5.93
2018-09-18T17:04:54.742Z,7.77
2018-09-18T17:07:23.964Z,7.87
2018-09-18T17:09:53.357Z,5.73
2018-09-18T17:12:22.539Z,7.10
2018-09-18T17:14:51.857Z,5.83
2018-09-18T17:17:21.182Z,6.90
2018-09-18T17:19:50.777Z,7.43
2018-09-18T17:22:20.125Z,5.53
2018-09-18T17:24:49.455Z,11.97
2018-09-18T17:27:18.995Z,8.43
2018-09-18T17:29:48.019Z,5.77
2018-09-18T17:32:17.549Z,5.43
2018-09-18T17:34:46.952Z,5.70
2018-09-18T17:37:16.219Z,7.17
2018-09-18T17:39:45.624Z,5.73
2018-09-18T17:42:14.590Z,5.20
2018-09-18T17:44:43.895Z,5.40
2018-09-18T17:47:13.410Z,12.30
2018-09-18T17:49:43.541Z,9.67
2018-09-18T17:52:12.513Z,6.03
2018-09-18T17:54:41.871Z,6.50
2018-09-18T17:57:11.104Z,7.03
2018-09-18T17:59:40.567Z,8.53
2018-09-18T18:02:10.320Z,7.10
2018-09-18T18:04:39.701Z,5.83
2018-09-18T18:07:09.166Z,6.17
2018-09-18T18:09:39.161Z,5.60
2018-09-18T18:12:08.538Z,5.13
2018-09-18T18:14:37.721Z,6.57
2018-09-18T18:17:08.001Z,6.57
2018-09-18T18:19:36.917Z,5.90
2018-09-18T18:22:06.761Z,5.47
2018-09-18T18:24:35.995Z,5.97
2018-09-18T18:27:06.333Z,6.20
2018-09-18T18:29:36.059Z,5.97
2018-09-18T18:32:05.708Z,5.87
2018-09-18T18:34:35.197Z,6.53
2018-09-18T18:37:04.399Z,5.60
2018-09-18T18:39:34.058Z,6.40
2018-09-18T18:42:03.173Z,6.20
2018-09-18T18:44:33.483Z,5.63
2018-09-18T18:47:04.188Z,6.07
2018-09-18T18:49:38.149Z,5.77
2018-09-18T18:52:07.668Z,5.70
2018-09-18T18:54:42.101Z,6.20
2018-09-18T18:57:12.183Z,5.93
2018-09-18T18:59:43.043Z,5.70
2018-09-18T19:02:11.948Z,6.33
2018-09-18T19:04:41.468Z,6.10
2018-09-18T19:07:11.654Z,5.93
2018-09-18T19:09:40.925Z,5.30
2018-09-18T19:12:10.805Z,5.50
2018-09-18T19:14:40.988Z,5.60
2018-09-18T19:17:11.237Z,5.67
2018-09-18T19:19:40.676Z,6.30
2018-09-18T19:22:09.934Z,5.73
2018-09-18T19:24:39.168Z,5.97
2018-09-18T19:27:08.302Z,5.47
2018-09-18T19:29:37.415Z,6.63
2018-09-18T19:32:06.601Z,8.50
2018-09-18T19:34:36.598Z,5.47
2018-09-18T19:37:06.167Z,6.30
2018-09-18T19:39:35.877Z,5.80
2018-09-18T19:42:05.207Z,7.63
2018-09-18T19:44:35.239Z,7.73
2018-09-18T19:47:04.608Z,6.37
2018-09-18T19:49:35.628Z,6.10
2018-09-18T19:52:04.646Z,7.17
2018-09-18T19:54:33.981Z,7.67
2018-09-18T19:57:03.368Z,8.80
2018-09-18T19:59:32.763Z,6.50
2018-09-18T20:02:02.271Z,6.20
2018-09-18T20:04:31.593Z,6.13
2018-09-18T20:07:00.919Z,7.23
2018-09-18T20:09:30.032Z,7.37
2018-09-18T20:11:59.009Z,6.40
2018-09-18T20:14:28.307Z,5.80
2018-09-18T20:16:57.512Z,6.50
2018-09-18T20:19:26.720Z,5.43
2018-09-18T20:21:56.058Z,6.23
2018-09-18T20:24:25.444Z,5.60
2018-09-18T20:26:54.864Z,5.67
2018-09-18T20:29:24.000Z,5.90
2018-09-18T20:31:53.260Z,5.20
2018-09-18T20:34:22.807Z,5.50
2018-09-18T20:36:52.531Z,5.73
2018-09-18T20:39:21.760Z,5.53
2018-09-18T20:41:51.013Z,7.33
2018-09-18T20:44:19.946Z,6.30
2018-09-18T20:46:49.296Z,5.63
2018-09-18T20:49:18.552Z,7.60
2018-09-18T20:51:47.733Z,6.57
2018-09-18T20:54:16.939Z,5.40
2018-09-18T20:56:46.146Z,5.63
2018-09-18T20:59:15.154Z,7.47
2018-09-18T21:01:44.335Z,5.93
2018-09-18T21:04:13.730Z,5.90
2018-09-18T21:06:43.032Z,6.53
2018-09-18T21:09:12.167Z,5.90
2018-09-18T21:11:41.483Z,5.67
2018-09-18T21:14:10.982Z,5.47
2018-09-18T21:16:40.162Z,6.07
2018-09-18T21:19:09.427Z,5.90
2018-09-18T21:21:38.718Z,7.90
2018-09-18T21:24:08.072Z,5.63
2018-09-18T21:26:37.307Z,5.70
2018-09-18T21:29:06.496Z,6.00
2018-09-18T21:31:35.396Z,6.13
2018-09-18T21:34:04.436Z,5.70
2018-09-18T21:36:33.799Z,5.90
2018-09-18T21:39:03.267Z,5.83
2018-09-18T21:41:32.443Z,5.40
2018-09-18T21:44:01.648Z,5.80
2018-09-18T21:46:30.994Z,5.30
2018-09-18T21:49:00.339Z,5.83
2018-09-18T21:51:29.800Z,5.53
2018-09-18T21:53:59.106Z,5.23
2018-09-18T21:56:28.411Z,5.63
2018-09-18T21:58:57.784Z,5.23
2018-09-18T22:01:27.235Z,7.97
2018-09-18T22:03:56.541Z,6.10
2018-09-18T22:06:25.863Z,5.80
2018-09-18T22:08:54.893Z,5.87
2018-09-18T22:11:24.107Z,6.20
2018-09-18T22:13:53.559Z,5.80
2018-09-18T22:16:22.561Z,5.57
2018-09-18T22:18:52.080Z,5.73
2018-09-18T22:21:21.292Z,5.67
2018-09-18T22:23:50.529Z,5.80
2018-09-18T22:26:19.823Z,6.13
2018-09-18T22:28:49.178Z,7.03
2018-09-18T22:31:18.363Z,6.17
2018-09-18T22:33:47.674Z,6.13
2018-09-18T22:36:16.912Z,6.30
2018-09-18T22:38:46.381Z,6.60
2018-09-18T22:41:15.344Z,6.77
2018-09-18T22:43:44.566Z,6.70
2018-09-18T22:46:13.851Z,7.67
2018-09-18T22:48:43.071Z,6.77
2018-09-18T22:51:12.354Z,6.47
2018-09-18T22:53:41.603Z,7.17
2018-09-18T22:56:10.948Z,7.40
2018-09-18T22:58:40.165Z,6.03
2018-09-18T23:01:09.400Z,6.10
2018-09-18T23:03:38.595Z,8.13
2018-09-18T23:06:07.946Z,6.67
2018-09-18T23:08:37.197Z,7.33
2018-09-18T23:11:06.748Z,5.30
2018-09-18T23:13:35.758Z,5.47
2018-09-18T23:16:04.755Z,5.83
2018-09-18T23:18:34.004Z,5.60
2018-09-18T23:21:03.442Z,6.53
2018-09-18T23:23:32.940Z,5.50
2018-09-18T23:26:01.773Z,6.83
2018-09-18T23:28:31.194Z,5.57
2018-09-18T23:31:00.249Z,7.80
2018-09-18T23:33:29.675Z,7.13
2018-09-18T23:35:58.984Z,9.03
2018-09-18T23:38:28.226Z,5.60
2018-09-18T23:40:57.471Z,5.67
2018-09-18T23:43:26.731Z,5.33
2018-09-18T23:45:56.023Z,7.07
2018-09-18T23:48:25.209Z,5.83
2018-09-18T23:50:54.169Z,6.30
2018-09-18T23:53:23.155Z,6.77
2018-09-18T23:55:52.343Z,5.40
2018-09-18T23:58:21.618Z,7.23
